Terminal Aerodrome Forecast
Issued by NWS

Home | Current Version | Previous Version | Text Only | Print | Product List | Glossary On
Versions: 1 2 3 4 5 6 7 8 9 10 11 12 13 14 15
138
FTUS44 KBMX 161139
TAFEET
TAF
KEET 161139Z 1612/1712 31003KT P6SM SKC
     FM161600 32008KT P6SM BKN015
     FM161830 33012G18KT 5SM -SN BKN015 OVC040
     FM162200 33012KT 3SM -SN OVC015
     FM170300 34012KT P6SM BKN050=

USA.gov is the U.S. government's official web portal to all federal, state and local government web resources and services.